MAPA DE AEROPUERTO

INFORMACIÓN METAR y TAF


Deprecated: The each() function is deprecated. This message will be suppressed on further calls in /home/customer/www/clickair-va.com/public_html/VAM/vam/helpers/get_metar.php on line 20
METAR FOR ENGM
ADDS - METARS form results

(0406 UTC 25 May 2022)
Data provider http://aviationweather.gov/metar/data/
 
METAR text: ENGM 250350Z 18010KT 9999 FEW007 SCT014 BKN063 10/09 Q1002 TEMPO BKN014
Conditions at: ENGM (OSLO/GARDERMOEN , NO) observed 0350 UTC 25 May 2022
Temperature: 10.0°C (50°F)
Dewpoint: 9.0°C (48°F) [RH = 93%]
Pressure (altimeter): 29.59 inches Hg (1002.0 mb)
Winds: from the S (180 degrees) at 12 MPH (10 knots; 5.1 m/s)
Visibility: 6 or more miles (10+ km)
Ceiling: 6300 feet AGL
Clouds: few clouds at 700 feet AGL
scattered clouds at 1400 feet AGL
broken clouds at 6300 feet AGL
Weather: no significant weather observed at this time

METAR text: ENGM 250320Z 17010KT 9999 FEW007 SCT011 BKN015 10/09 Q1002
Conditions at: ENGM (OSLO/GARDERMOEN , NO) observed 0320 UTC 25 May 2022
Temperature: 10.0°C (50°F)
Dewpoint: 9.0°C (48°F) [RH = 93%]
Pressure (altimeter): 29.59 inches Hg (1002.0 mb)
Winds: from the S (170 degrees) at 12 MPH (10 knots; 5.1 m/s)
Visibility: 6 or more miles (10+ km)
Ceiling: 1500 feet AGL
Clouds: few clouds at 700 feet AGL
scattered clouds at 1100 feet AGL
broken clouds at 1500 feet AGL
Weather: no significant weather observed at this time

Forecast for: ENGM (OSLO/GARDERMOEN , NO)
Text: TAF ENGM 2500/2524 19012KT 9999 FEW008 BKN025
Forecast period: 0000 UTC 25 May 2022 to 0000 UTC 26 May 2022
Forecast type: FROM: standard forecast or significant change
Winds: from the S (190 degrees) at 14 MPH (12 knots; 6.2 m/s)
Visibility: 6 or more miles (10+ km)
Ceiling: 2500 feet AGL
Clouds: few clouds at 800 feet AGL
broken clouds at 2500 feet AGL
Weather: no significant weather forecast for this period
Text: PROB30 2500/2508 BKN008
Forecast period: 0000 to 0800 UTC 25 May 2022
Forecast type: PROBABLE: 30 percent likelihood of the following during this time
Visibility: missing
Ceiling: 800 feet AGL
Clouds: broken clouds at 800 feet AGL
Weather: no significant weather forecast for this period
Text: TEMPO 2500/2517 SHRA SCT018CB BKN025
Forecast period: 0000 to 1700 UTC 25 May 2022
Forecast type: TEMPORARY: The following changes expected for less than half the time period
Visibility: missing
Ceiling: 2500 feet AGL
Clouds: scattered clouds at 1800 feet AGL
broken clouds at 2500 feet AGL
Weather: SHRA  (rain showers)
Text: PROB30
Forecast period: 1100 to 1700 UTC 25 May 2022
Forecast type: TEMPORARY: The following changes expected for less than half the time period
Visibility: missing
Ceiling: unknown
Clouds: missing
Weather: TS  (thunderstorm)